Airfield :
LOGIN :

Register | Disclaimer

   EN    FR    IT 

 










Legend :    VFR   Marginal VFR   IFR   Intensive IFR   Very Intensive IFR
Visi :
Ceiling :
>= 8 km
>= 3000ft
5 to 8 km
1000 to 3000 ft
1500m to 5 km
500 to 1000 ft
800 to 1500m
200 to 500 ft
< 800m
< 200 ft
Symbols :   Thunderstorms  Fog  Heavy snow  Heavy precipitations  Wind > 20 kt
SIGMETs :     Misc.  Thunderstorms  Icing  Turbulence  Mountain Waves  Volcanic Ashes







- Airport Elevation : 333 ft


LIPL - Ghedi Brescia (Mil)

CURRENT METAR :
  • 241655Z 25002KT 8000 FEW015 SCT040 23/14 Q1010 RMK BKN VIS MIN 8000 WIND THR31 23002KT WIND THR13 26002KT BLU

EXPIRED METARs :
  • 241555Z 18003KT 8000 SCT015 SCT050 23/14 Q1011 RMK BKN VIS MIN 8000 WIND THR31 21004KT WIND THR13 21003KT BLU
  • 241455Z 24004KT 8000 SCT015 SCT050 24/14 Q1011 RMK BKN VIS MIN 8000 WIND THR31 16002KT WIND THR13 27003KT BLU

TAF TAF LIPL
Valid from the 24 at 18:00 until the 25 at 03:00 UTC


241700Z 2418/2503 08003KT 6000 SCT020 SCT040
PROB30
TEMPO 2418/2421 4000 TSRA FEW020CB BKN040
No reported NOTAMs for that airfield.
2 SIGMETs reported for the Milano FIR (LIMM) :
 
Frequent thunderstorms
LIMM SIGMET 2 VALID 241730/242130 LIIP
LIMM MILANO FIR FRQ TS OBS WI N4554 E00651 - N4504 E00635 - N4346 E00728 - N4412 E00822 - N4516 E00911 - N4522 E01042 - N4631 E01334 - N4711 E01215 - N4627 E00822 - N4554 E00651 TOP FL390 STNR WKN=
Frequent thunderstorms and hail
LIMM SIGMET 1 VALID 241545/241730 LIIP
LIMM MILANO FIR FRQ TSGR OBS WI N4348 E00741 - N4410 E00826 - N4459 E00805 - N4535 E00852 - N4522 E01042 - N4555 E01244 - N4640 E01002 - N4627 E00823 - N4551 E00641 - N4507 E00634 - N4420 E00646 - N4348 E00741 TOP FL390 STNR WKN=



MET'MAP, your aeronautical weather chart ! - Copyright ORBIFLY December 2007 - Disclaimer

ORBIFLY MET'MAP TEAM :

Programming & Development : Alexandra Zaïnal
Concept & Development : Baudouin d'Aumeries
Co-Development & Prog : Marc-Olivier Méhu
Technical & hardware support : Manuel Goepfert

Contact : metmap@orbifly.com




SOURCES & CREDITS :

   NOAA